sensor_id;sensor_type;location;lat;lon;timestamp;P1;durP1;ratioP1;P2;durP2;ratioP2
21814;SDS011;11069;48.988;8.450;2022-08-20T00:00:45;1.48;;;1.30;;
21814;SDS011;11069;48.988;8.450;2022-08-20T00:03:17;2.65;;;1.27;;
21814;SDS011;11069;48.988;8.450;2022-08-20T00:10:51;2.10;;;1.38;;
21814;SDS011;11069;48.988;8.450;2022-08-20T00:13:21;2.38;;;1.50;;
21814;SDS011;11069;48.988;8.450;2022-08-20T00:15:50;1.98;;;1.50;;
21814;SDS011;11069;48.988;8.450;2022-08-20T00:18:16;1.75;;;1.30;;
21814;SDS011;11069;48.988;8.450;2022-08-20T00:20:44;2.55;;;1.67;;
21814;SDS011;11069;48.988;8.450;2022-08-20T00:23:12;3.65;;;1.30;;
21814;SDS011;11069;48.988;8.450;2022-08-20T00:25:38;3.28;;;1.50;;
21814;SDS011;11069;48.988;8.450;2022-08-20T00:28:04;3.15;;;1.70;;
21814;SDS011;11069;48.988;8.450;2022-08-20T00:30:31;2.47;;;1.38;;
21814;SDS011;11069;48.988;8.450;2022-08-20T00:33:01;2.53;;;1.55;;
21814;SDS011;11069;48.988;8.450;2022-08-20T00:35:32;2.97;;;1.80;;
21814;SDS011;11069;48.988;8.450;2022-08-20T00:38:00;2.05;;;1.65;;
21814;SDS011;11069;48.988;8.450;2022-08-20T00:40:29;2.50;;;1.77;;
21814;SDS011;11069;48.988;8.450;2022-08-20T00:42:58;1.67;;;1.50;;
21814;SDS011;11069;48.988;8.450;2022-08-20T00:45:27;1.75;;;1.65;;
21814;SDS011;11069;48.988;8.450;2022-08-20T00:47:56;5.13;;;1.73;;
21814;SDS011;11069;48.988;8.450;2022-08-20T00:50:25;2.97;;;1.63;;
21814;SDS011;11069;48.988;8.450;2022-08-20T00:52:57;1.95;;;1.65;;
21814;SDS011;11069;48.988;8.450;2022-08-20T00:55:23;2.28;;;1.60;;
21814;SDS011;11069;48.988;8.450;2022-08-20T00:57:51;5.80;;;1.70;;
21814;SDS011;11069;48.988;8.450;2022-08-20T01:00:22;5.50;;;2.00;;
21814;SDS011;11069;48.988;8.450;2022-08-20T01:02:52;2.00;;;1.80;;
21814;SDS011;11069;48.988;8.450;2022-08-20T01:05:19;2.22;;;1.80;;
21814;SDS011;11069;48.988;8.450;2022-08-20T01:07:47;3.67;;;2.00;;
21814;SDS011;11069;48.988;8.450;2022-08-20T01:10:18;2.83;;;1.90;;
21814;SDS011;11069;48.988;8.450;2022-08-20T01:12:47;3.72;;;1.92;;
21814;SDS011;11069;48.988;8.450;2022-08-20T01:15:16;2.10;;;1.90;;
21814;SDS011;11069;48.988;8.450;2022-08-20T01:17:47;2.20;;;2.00;;
21814;SDS011;11069;48.988;8.450;2022-08-20T01:20:35;2.10;;;1.88;;
21814;SDS011;11069;48.988;8.450;2022-08-20T01:23:20;2.20;;;2.00;;
21814;SDS011;11069;48.988;8.450;2022-08-20T01:28:26;2.90;;;2.00;;
21814;SDS011;11069;48.988;8.450;2022-08-20T01:31:03;2.95;;;2.30;;
21814;SDS011;11069;48.988;8.450;2022-08-20T01:33:32;2.53;;;2.33;;
21814;SDS011;11069;48.988;8.450;2022-08-20T01:35:58;2.25;;;1.90;;
21814;SDS011;11069;48.988;8.450;2022-08-20T01:38:25;3.50;;;2.22;;
21814;SDS011;11069;48.988;8.450;2022-08-20T01:40:56;2.53;;;2.22;;
21814;SDS011;11069;48.988;8.450;2022-08-20T01:43:46;3.63;;;2.10;;
21814;SDS011;11069;48.988;8.450;2022-08-20T01:46:14;4.18;;;2.58;;
21814;SDS011;11069;48.988;8.450;2022-08-20T01:48:41;2.55;;;2.05;;
21814;SDS011;11069;48.988;8.450;2022-08-20T01:53:41;2.60;;;2.40;;
21814;SDS011;11069;48.988;8.450;2022-08-20T01:56:19;3.72;;;2.40;;
21814;SDS011;11069;48.988;8.450;2022-08-20T01:58:50;2.88;;;2.35;;
21814;SDS011;11069;48.988;8.450;2022-08-20T02:01:29;3.10;;;2.22;;
21814;SDS011;11069;48.988;8.450;2022-08-20T02:04:03;3.20;;;2.28;;
21814;SDS011;11069;48.988;8.450;2022-08-20T02:06:31;3.58;;;2.45;;
21814;SDS011;11069;48.988;8.450;2022-08-20T02:08:59;3.70;;;2.42;;
21814;SDS011;11069;48.988;8.450;2022-08-20T02:11:27;3.40;;;2.28;;
21814;SDS011;11069;48.988;8.450;2022-08-20T02:13:54;2.78;;;2.38;;
21814;SDS011;11069;48.988;8.450;2022-08-20T02:16:31;4.40;;;2.88;;
21814;SDS011;11069;48.988;8.450;2022-08-20T02:19:02;4.43;;;2.50;;
21814;SDS011;11069;48.988;8.450;2022-08-20T02:21:38;4.03;;;2.55;;
21814;SDS011;11069;48.988;8.450;2022-08-20T02:24:07;3.05;;;2.60;;
21814;SDS011;11069;48.988;8.450;2022-08-20T02:26:33;5.03;;;2.97;;
21814;SDS011;11069;48.988;8.450;2022-08-20T02:29:02;2.78;;;2.55;;
21814;SDS011;11069;48.988;8.450;2022-08-20T02:31:32;2.90;;;2.70;;
21814;SDS011;11069;48.988;8.450;2022-08-20T02:33:58;4.13;;;2.50;;
21814;SDS011;11069;48.988;8.450;2022-08-20T02:36:24;5.07;;;2.80;;
21814;SDS011;11069;48.988;8.450;2022-08-20T02:38:51;4.22;;;2.78;;
21814;SDS011;11069;48.988;8.450;2022-08-20T02:41:17;6.75;;;3.08;;
21814;SDS011;11069;48.988;8.450;2022-08-20T02:43:45;3.30;;;3.00;;
21814;SDS011;11069;48.988;8.450;2022-08-20T02:46:11;5.18;;;2.95;;
21814;SDS011;11069;48.988;8.450;2022-08-20T02:48:37;4.60;;;3.10;;
21814;SDS011;11069;48.988;8.450;2022-08-20T02:51:04;4.60;;;3.40;;
21814;SDS011;11069;48.988;8.450;2022-08-20T02:53:32;4.10;;;3.13;;
21814;SDS011;11069;48.988;8.450;2022-08-20T02:56:02;4.30;;;3.42;;
21814;SDS011;11069;48.988;8.450;2022-08-20T02:58:28;3.80;;;3.50;;
21814;SDS011;11069;48.988;8.450;2022-08-20T03:00:54;5.28;;;3.40;;
21814;SDS011;11069;48.988;8.450;2022-08-20T03:03:21;3.85;;;3.40;;
21814;SDS011;11069;48.988;8.450;2022-08-20T03:05:49;3.95;;;3.53;;
21814;SDS011;11069;48.988;8.450;2022-08-20T03:08:16;4.45;;;3.70;;
21814;SDS011;11069;48.988;8.450;2022-08-20T03:10:43;3.90;;;3.45;;
21814;SDS011;11069;48.988;8.450;2022-08-20T03:13:10;4.45;;;3.80;;
21814;SDS011;11069;48.988;8.450;2022-08-20T03:15:38;5.32;;;3.75;;
21814;SDS011;11069;48.988;8.450;2022-08-20T03:18:06;5.53;;;3.30;;
21814;SDS011;11069;48.988;8.450;2022-08-20T03:20:31;8.13;;;3.65;;
21814;SDS011;11069;48.988;8.450;2022-08-20T03:22:57;4.55;;;3.70;;
21814;SDS011;11069;48.988;8.450;2022-08-20T03:25:23;4.40;;;3.60;;
21814;SDS011;11069;48.988;8.450;2022-08-20T03:27:49;5.45;;;3.95;;
21814;SDS011;11069;48.988;8.450;2022-08-20T03:30:16;5.70;;;3.80;;
21814;SDS011;11069;48.988;8.450;2022-08-20T03:32:43;4.43;;;3.70;;
21814;SDS011;11069;48.988;8.450;2022-08-20T03:35:09;6.57;;;4.40;;
21814;SDS011;11069;48.988;8.450;2022-08-20T03:37:37;8.60;;;4.45;;
21814;SDS011;11069;48.988;8.450;2022-08-20T03:40:06;6.18;;;3.83;;
21814;SDS011;11069;48.988;8.450;2022-08-20T03:42:35;4.32;;;3.75;;
21814;SDS011;11069;48.988;8.450;2022-08-20T03:45:01;4.20;;;3.80;;
21814;SDS011;11069;48.988;8.450;2022-08-20T03:47:27;5.25;;;4.05;;
21814;SDS011;11069;48.988;8.450;2022-08-20T03:49:57;7.20;;;3.92;;
21814;SDS011;11069;48.988;8.450;2022-08-20T03:52:23;4.30;;;3.90;;
21814;SDS011;11069;48.988;8.450;2022-08-20T03:54:50;6.63;;;4.40;;
21814;SDS011;11069;48.988;8.450;2022-08-20T03:57:15;4.85;;;4.05;;
21814;SDS011;11069;48.988;8.450;2022-08-20T03:59:41;5.72;;;4.60;;
21814;SDS011;11069;48.988;8.450;2022-08-20T04:02:08;4.82;;;4.32;;
21814;SDS011;11069;48.988;8.450;2022-08-20T04:04:37;6.50;;;4.53;;
21814;SDS011;11069;48.988;8.450;2022-08-20T04:07:12;7.30;;;4.60;;
21814;SDS011;11069;48.988;8.450;2022-08-20T04:09:40;4.82;;;4.40;;
21814;SDS011;11069;48.988;8.450;2022-08-20T04:12:08;5.97;;;4.75;;
21814;SDS011;11069;48.988;8.450;2022-08-20T04:14:37;6.18;;;4.22;;
21814;SDS011;11069;48.988;8.450;2022-08-20T04:17:07;5.57;;;4.07;;
21814;SDS011;11069;48.988;8.450;2022-08-20T04:19:35;4.70;;;4.03;;
21814;SDS011;11069;48.988;8.450;2022-08-20T04:22:01;8.20;;;4.35;;
21814;SDS011;11069;48.988;8.450;2022-08-20T04:24:27;5.07;;;4.57;;
21814;SDS011;11069;48.988;8.450;2022-08-20T04:26:53;6.40;;;4.60;;
21814;SDS011;11069;48.988;8.450;2022-08-20T04:29:19;4.88;;;4.43;;
21814;SDS011;11069;48.988;8.450;2022-08-20T04:31:46;7.57;;;4.63;;
21814;SDS011;11069;48.988;8.450;2022-08-20T04:34:12;5.55;;;4.13;;
21814;SDS011;11069;48.988;8.450;2022-08-20T04:36:38;5.40;;;4.53;;
21814;SDS011;11069;48.988;8.450;2022-08-20T04:39:04;6.60;;;4.65;;
21814;SDS011;11069;48.988;8.450;2022-08-20T04:41:30;5.35;;;4.70;;
21814;SDS011;11069;48.988;8.450;2022-08-20T04:43:56;7.05;;;4.40;;
21814;SDS011;11069;48.988;8.450;2022-08-20T04:46:23;8.27;;;4.32;;
21814;SDS011;11069;48.988;8.450;2022-08-20T04:48:52;6.72;;;5.00;;
21814;SDS011;11069;48.988;8.450;2022-08-20T04:51:18;5.10;;;4.57;;
21814;SDS011;11069;48.988;8.450;2022-08-20T04:53:45;6.30;;;4.85;;
21814;SDS011;11069;48.988;8.450;2022-08-20T04:56:10;6.40;;;4.60;;
21814;SDS011;11069;48.988;8.450;2022-08-20T04:58:37;5.22;;;4.53;;
21814;SDS011;11069;48.988;8.450;2022-08-20T05:01:05;5.45;;;4.38;;
21814;SDS011;11069;48.988;8.450;2022-08-20T05:03:35;6.50;;;4.60;;
21814;SDS011;11069;48.988;8.450;2022-08-20T05:06:03;4.93;;;4.40;;
21814;SDS011;11069;48.988;8.450;2022-08-20T05:08:30;5.13;;;4.72;;
21814;SDS011;11069;48.988;8.450;2022-08-20T05:10:56;5.75;;;4.78;;
21814;SDS011;11069;48.988;8.450;2022-08-20T05:13:22;8.00;;;4.30;;
21814;SDS011;11069;48.988;8.450;2022-08-20T05:15:48;5.30;;;4.80;;
21814;SDS011;11069;48.988;8.450;2022-08-20T05:18:15;10.15;;;4.65;;
21814;SDS011;11069;48.988;8.450;2022-08-20T05:20:43;5.32;;;4.55;;
21814;SDS011;11069;48.988;8.450;2022-08-20T05:23:10;7.10;;;4.90;;
21814;SDS011;11069;48.988;8.450;2022-08-20T05:25:37;6.03;;;4.20;;
21814;SDS011;11069;48.988;8.450;2022-08-20T05:28:06;7.18;;;5.03;;
21814;SDS011;11069;48.988;8.450;2022-08-20T05:33:03;13.25;;;4.80;;
21814;SDS011;11069;48.988;8.450;2022-08-20T05:35:30;6.07;;;4.55;;
21814;SDS011;11069;48.988;8.450;2022-08-20T05:37:58;10.23;;;5.18;;
21814;SDS011;11069;48.988;8.450;2022-08-20T05:40:25;8.02;;;5.00;;
21814;SDS011;11069;48.988;8.450;2022-08-20T05:42:54;8.52;;;4.95;;
21814;SDS011;11069;48.988;8.450;2022-08-20T05:45:28;6.00;;;4.82;;
21814;SDS011;11069;48.988;8.450;2022-08-20T05:47:55;6.00;;;5.20;;
21814;SDS011;11069;48.988;8.450;2022-08-20T05:50:21;9.50;;;4.72;;
21814;SDS011;11069;48.988;8.450;2022-08-20T05:52:46;5.60;;;4.97;;
21814;SDS011;11069;48.988;8.450;2022-08-20T05:55:12;5.97;;;4.85;;
21814;SDS011;11069;48.988;8.450;2022-08-20T05:57:39;5.10;;;4.60;;
21814;SDS011;11069;48.988;8.450;2022-08-20T06:00:09;6.68;;;4.25;;
21814;SDS011;11069;48.988;8.450;2022-08-20T06:02:36;8.55;;;4.63;;
21814;SDS011;11069;48.988;8.450;2022-08-20T06:05:21;6.60;;;4.20;;
21814;SDS011;11069;48.988;8.450;2022-08-20T06:07:47;7.35;;;4.93;;
21814;SDS011;11069;48.988;8.450;2022-08-20T06:10:14;7.45;;;5.18;;
21814;SDS011;11069;48.988;8.450;2022-08-20T06:12:40;6.93;;;4.75;;
21814;SDS011;11069;48.988;8.450;2022-08-20T06:15:08;6.63;;;4.20;;
21814;SDS011;11069;48.988;8.450;2022-08-20T06:17:34;6.85;;;4.60;;
21814;SDS011;11069;48.988;8.450;2022-08-20T06:20:00;6.03;;;4.55;;
21814;SDS011;11069;48.988;8.450;2022-08-20T06:22:30;6.63;;;4.72;;
21814;SDS011;11069;48.988;8.450;2022-08-20T06:24:56;6.82;;;4.18;;
21814;SDS011;11069;48.988;8.450;2022-08-20T06:27:22;5.75;;;4.53;;
21814;SDS011;11069;48.988;8.450;2022-08-20T06:29:49;5.28;;;4.60;;
21814;SDS011;11069;48.988;8.450;2022-08-20T06:32:15;4.85;;;4.20;;
21814;SDS011;11069;48.988;8.450;2022-08-20T06:34:41;5.30;;;4.10;;
21814;SDS011;11069;48.988;8.450;2022-08-20T06:37:22;5.55;;;4.30;;
21814;SDS011;11069;48.988;8.450;2022-08-20T06:39:50;6.80;;;4.25;;
21814;SDS011;11069;48.988;8.450;2022-08-20T06:42:16;4.80;;;4.18;;
21814;SDS011;11069;48.988;8.450;2022-08-20T06:44:44;5.32;;;4.25;;
21814;SDS011;11069;48.988;8.450;2022-08-20T06:47:13;5.05;;;4.00;;
21814;SDS011;11069;48.988;8.450;2022-08-20T06:49:39;6.28;;;4.00;;
21814;SDS011;11069;48.988;8.450;2022-08-20T06:52:05;4.53;;;4.13;;
21814;SDS011;11069;48.988;8.450;2022-08-20T06:54:31;5.78;;;4.22;;
21814;SDS011;11069;48.988;8.450;2022-08-20T06:56:58;5.03;;;4.20;;
21814;SDS011;11069;48.988;8.450;2022-08-20T06:59:24;6.15;;;4.10;;
21814;SDS011;11069;48.988;8.450;2022-08-20T07:01:49;10.43;;;4.45;;
21814;SDS011;11069;48.988;8.450;2022-08-20T07:04:15;10.20;;;4.55;;
21814;SDS011;11069;48.988;8.450;2022-08-20T07:06:41;8.80;;;3.95;;
21814;SDS011;11069;48.988;8.450;2022-08-20T07:09:07;8.23;;;4.30;;
21814;SDS011;11069;48.988;8.450;2022-08-20T07:11:33;6.50;;;4.15;;
21814;SDS011;11069;48.988;8.450;2022-08-20T07:13:59;5.90;;;3.97;;
21814;SDS011;11069;48.988;8.450;2022-08-20T07:16:29;7.18;;;4.05;;
21814;SDS011;11069;48.988;8.450;2022-08-20T07:18:55;11.20;;;4.72;;
21814;SDS011;11069;48.988;8.450;2022-08-20T07:21:22;6.45;;;3.88;;
21814;SDS011;11069;48.988;8.450;2022-08-20T07:23:48;5.88;;;4.07;;
21814;SDS011;11069;48.988;8.450;2022-08-20T07:26:14;3.75;;;3.45;;
21814;SDS011;11069;48.988;8.450;2022-08-20T07:28:40;6.53;;;3.30;;
21814;SDS011;11069;48.988;8.450;2022-08-20T07:31:05;3.85;;;3.25;;
21814;SDS011;11069;48.988;8.450;2022-08-20T07:33:50;5.38;;;3.25;;
21814;SDS011;11069;48.988;8.450;2022-08-20T07:36:16;6.63;;;2.90;;
21814;SDS011;11069;48.988;8.450;2022-08-20T07:38:42;7.57;;;2.95;;
21814;SDS011;11069;48.988;8.450;2022-08-20T07:41:10;4.97;;;3.03;;
21814;SDS011;11069;48.988;8.450;2022-08-20T07:43:38;3.65;;;2.92;;
21814;SDS011;11069;48.988;8.450;2022-08-20T07:46:05;4.28;;;2.63;;
21814;SDS011;11069;48.988;8.450;2022-08-20T07:48:32;9.52;;;3.25;;
21814;SDS011;11069;48.988;8.450;2022-08-20T07:51:01;3.67;;;2.92;;
21814;SDS011;11069;48.988;8.450;2022-08-20T07:53:28;3.10;;;2.80;;
21814;SDS011;11069;48.988;8.450;2022-08-20T07:55:54;3.90;;;2.95;;
21814;SDS011;11069;48.988;8.450;2022-08-20T07:58:21;3.22;;;2.88;;
21814;SDS011;11069;48.988;8.450;2022-08-20T08:00:48;3.67;;;3.10;;
21814;SDS011;11069;48.988;8.450;2022-08-20T08:03:14;3.25;;;2.95;;
21814;SDS011;11069;48.988;8.450;2022-08-20T08:05:41;8.45;;;3.20;;
21814;SDS011;11069;48.988;8.450;2022-08-20T08:08:10;7.88;;;3.28;;
21814;SDS011;11069;48.988;8.450;2022-08-20T08:10:38;4.93;;;2.88;;
21814;SDS011;11069;48.988;8.450;2022-08-20T08:13:07;4.30;;;3.00;;
21814;SDS011;11069;48.988;8.450;2022-08-20T08:15:39;5.53;;;3.15;;
21814;SDS011;11069;48.988;8.450;2022-08-20T08:18:17;5.47;;;2.70;;
21814;SDS011;11069;48.988;8.450;2022-08-20T08:20:46;9.70;;;3.08;;
21814;SDS011;11069;48.988;8.450;2022-08-20T08:23:14;5.25;;;3.20;;
21814;SDS011;11069;48.988;8.450;2022-08-20T08:25:40;4.13;;;2.70;;
21814;SDS011;11069;48.988;8.450;2022-08-20T08:28:07;5.40;;;3.30;;
21814;SDS011;11069;48.988;8.450;2022-08-20T08:30:35;3.40;;;3.10;;
21814;SDS011;11069;48.988;8.450;2022-08-20T08:33:02;5.80;;;3.10;;
21814;SDS011;11069;48.988;8.450;2022-08-20T08:35:46;3.88;;;3.10;;
21814;SDS011;11069;48.988;8.450;2022-08-20T08:38:12;8.15;;;3.50;;
21814;SDS011;11069;48.988;8.450;2022-08-20T08:40:38;7.80;;;3.75;;
21814;SDS011;11069;48.988;8.450;2022-08-20T08:43:05;3.88;;;3.47;;
21814;SDS011;11069;48.988;8.450;2022-08-20T08:45:41;5.43;;;3.83;;
21814;SDS011;11069;48.988;8.450;2022-08-20T08:48:13;4.55;;;3.50;;
21814;SDS011;11069;48.988;8.450;2022-08-20T08:50:41;3.65;;;3.15;;
21814;SDS011;11069;48.988;8.450;2022-08-20T08:53:18;5.20;;;3.47;;
21814;SDS011;11069;48.988;8.450;2022-08-20T08:55:54;4.45;;;3.33;;
21814;SDS011;11069;48.988;8.450;2022-08-20T08:58:20;4.40;;;3.25;;
21814;SDS011;11069;48.988;8.450;2022-08-20T09:00:46;4.05;;;3.20;;
21814;SDS011;11069;48.988;8.450;2022-08-20T09:03:16;4.32;;;3.50;;
21814;SDS011;11069;48.988;8.450;2022-08-20T09:05:53;4.22;;;3.17;;
21814;SDS011;11069;48.988;8.450;2022-08-20T09:08:23;3.95;;;3.00;;
21814;SDS011;11069;48.988;8.450;2022-08-20T09:10:53;7.68;;;2.97;;
21814;SDS011;11069;48.988;8.450;2022-08-20T09:13:24;6.35;;;3.10;;
21814;SDS011;11069;48.988;8.450;2022-08-20T09:15:50;3.28;;;2.90;;
21814;SDS011;11069;48.988;8.450;2022-08-20T09:18:15;4.28;;;2.60;;
21814;SDS011;11069;48.988;8.450;2022-08-20T09:20:41;3.83;;;3.10;;
21814;SDS011;11069;48.988;8.450;2022-08-20T09:23:06;4.78;;;2.92;;
21814;SDS011;11069;48.988;8.450;2022-08-20T09:25:32;7.65;;;3.10;;
21814;SDS011;11069;48.988;8.450;2022-08-20T09:27:58;5.97;;;3.15;;
21814;SDS011;11069;48.988;8.450;2022-08-20T09:30:23;4.25;;;3.00;;
21814;SDS011;11069;48.988;8.450;2022-08-20T09:32:49;3.20;;;2.80;;
21814;SDS011;11069;48.988;8.450;2022-08-20T09:35:15;2.97;;;2.47;;
21814;SDS011;11069;48.988;8.450;2022-08-20T09:37:40;4.78;;;2.60;;
21814;SDS011;11069;48.988;8.450;2022-08-20T09:40:07;3.00;;;2.80;;
21814;SDS011;11069;48.988;8.450;2022-08-20T09:42:34;2.90;;;2.30;;
21814;SDS011;11069;48.988;8.450;2022-08-20T09:45:01;2.42;;;2.22;;
21814;SDS011;11069;48.988;8.450;2022-08-20T09:47:27;3.08;;;2.05;;
21814;SDS011;11069;48.988;8.450;2022-08-20T09:49:53;2.80;;;2.50;;
21814;SDS011;11069;48.988;8.450;2022-08-20T09:55:21;3.33;;;2.70;;
21814;SDS011;11069;48.988;8.450;2022-08-20T10:01:06;5.72;;;2.20;;
21814;SDS011;11069;48.988;8.450;2022-08-20T10:03:33;2.95;;;1.95;;
21814;SDS011;11069;48.988;8.450;2022-08-20T10:05:59;2.38;;;1.70;;
21814;SDS011;11069;48.988;8.450;2022-08-20T10:08:25;2.20;;;1.70;;
21814;SDS011;11069;48.988;8.450;2022-08-20T10:10:51;4.05;;;1.80;;
21814;SDS011;11069;48.988;8.450;2022-08-20T10:13:16;1.50;;;1.40;;
21814;SDS011;11069;48.988;8.450;2022-08-20T10:15:42;1.92;;;1.55;;
21814;SDS011;11069;48.988;8.450;2022-08-20T10:18:08;1.45;;;1.23;;
21814;SDS011;11069;48.988;8.450;2022-08-20T10:20:34;3.08;;;1.17;;
21814;SDS011;11069;48.988;8.450;2022-08-20T10:23:00;1.98;;;1.20;;
21814;SDS011;11069;48.988;8.450;2022-08-20T10:25:26;1.85;;;1.05;;
21814;SDS011;11069;48.988;8.450;2022-08-20T10:27:53;1.88;;;1.00;;
21814;SDS011;11069;48.988;8.450;2022-08-20T10:30:19;1.20;;;1.10;;
21814;SDS011;11069;48.988;8.450;2022-08-20T10:32:45;1.48;;;1.10;;
21814;SDS011;11069;48.988;8.450;2022-08-20T10:35:10;1.48;;;1.20;;
21814;SDS011;11069;48.988;8.450;2022-08-20T10:37:36;3.20;;;1.05;;
21814;SDS011;11069;48.988;8.450;2022-08-20T10:40:02;1.20;;;1.00;;
21814;SDS011;11069;48.988;8.450;2022-08-20T10:42:28;1.35;;;1.10;;
21814;SDS011;11069;48.988;8.450;2022-08-20T10:44:54;1.50;;;1.13;;
21814;SDS011;11069;48.988;8.450;2022-08-20T10:47:21;1.40;;;1.30;;
21814;SDS011;11069;48.988;8.450;2022-08-20T10:49:49;1.05;;;1.00;;
21814;SDS011;11069;48.988;8.450;2022-08-20T10:52:17;2.20;;;1.20;;
21814;SDS011;11069;48.988;8.450;2022-08-20T10:54:43;1.30;;;1.00;;
21814;SDS011;11069;48.988;8.450;2022-08-20T10:57:20;1.67;;;1.10;;
21814;SDS011;11069;48.988;8.450;2022-08-20T10:59:48;1.33;;;1.10;;
21814;SDS011;11069;48.988;8.450;2022-08-20T11:02:15;1.80;;;1.00;;
21814;SDS011;11069;48.988;8.450;2022-08-20T11:04:41;1.95;;;1.45;;
21814;SDS011;11069;48.988;8.450;2022-08-20T11:07:10;5.45;;;1.38;;
21814;SDS011;11069;48.988;8.450;2022-08-20T11:09:41;2.95;;;1.40;;
21814;SDS011;11069;48.988;8.450;2022-08-20T11:12:10;2.10;;;1.55;;
21814;SDS011;11069;48.988;8.450;2022-08-20T11:14:36;3.13;;;1.40;;
21814;SDS011;11069;48.988;8.450;2022-08-20T11:17:02;4.03;;;1.50;;
21814;SDS011;11069;48.988;8.450;2022-08-20T11:19:28;1.85;;;1.27;;
21814;SDS011;11069;48.988;8.450;2022-08-20T11:21:53;1.15;;;1.10;;
21814;SDS011;11069;48.988;8.450;2022-08-20T11:24:20;1.55;;;1.30;;
21814;SDS011;11069;48.988;8.450;2022-08-20T11:26:46;2.97;;;1.60;;
21814;SDS011;11069;48.988;8.450;2022-08-20T11:29:13;6.78;;;1.60;;
21814;SDS011;11069;48.988;8.450;2022-08-20T11:31:39;1.98;;;1.40;;
21814;SDS011;11069;48.988;8.450;2022-08-20T11:34:05;3.55;;;1.38;;
21814;SDS011;11069;48.988;8.450;2022-08-20T11:36:31;3.88;;;1.20;;
21814;SDS011;11069;48.988;8.450;2022-08-20T11:38:57;1.23;;;1.10;;
21814;SDS011;11069;48.988;8.450;2022-08-20T11:41:22;4.18;;;1.30;;
21814;SDS011;11069;48.988;8.450;2022-08-20T11:43:48;3.92;;;1.20;;
21814;SDS011;11069;48.988;8.450;2022-08-20T11:46:13;1.98;;;1.20;;
21814;SDS011;11069;48.988;8.450;2022-08-20T11:48:39;1.52;;;1.10;;
21814;SDS011;11069;48.988;8.450;2022-08-20T11:51:05;1.65;;;1.20;;
21814;SDS011;11069;48.988;8.450;2022-08-20T11:53:30;1.45;;;1.02;;
21814;SDS011;11069;48.988;8.450;2022-08-20T11:55:56;1.70;;;1.20;;
21814;SDS011;11069;48.988;8.450;2022-08-20T11:58:22;1.20;;;1.10;;
21814;SDS011;11069;48.988;8.450;2022-08-20T12:00:47;3.30;;;1.02;;
21814;SDS011;11069;48.988;8.450;2022-08-20T12:03:13;2.33;;;0.90;;
21814;SDS011;11069;48.988;8.450;2022-08-20T12:05:40;1.60;;;0.60;;
21814;SDS011;11069;48.988;8.450;2022-08-20T12:08:08;1.05;;;0.52;;
21814;SDS011;11069;48.988;8.450;2022-08-20T12:10:35;1.17;;;0.60;;
21814;SDS011;11069;48.988;8.450;2022-08-20T12:13:01;1.20;;;0.70;;
21814;SDS011;11069;48.988;8.450;2022-08-20T12:15:26;0.68;;;0.57;;
21814;SDS011;11069;48.988;8.450;2022-08-20T12:17:53;0.57;;;0.57;;
21814;SDS011;11069;48.988;8.450;2022-08-20T12:20:19;1.55;;;0.60;;
21814;SDS011;11069;48.988;8.450;2022-08-20T12:22:44;0.73;;;0.47;;
21814;SDS011;11069;48.988;8.450;2022-08-20T12:25:10;1.05;;;0.60;;
21814;SDS011;11069;48.988;8.450;2022-08-20T12:27:37;1.00;;;0.60;;
21814;SDS011;11069;48.988;8.450;2022-08-20T12:30:05;0.55;;;0.50;;
21814;SDS011;11069;48.988;8.450;2022-08-20T12:32:39;3.50;;;0.60;;
21814;SDS011;11069;48.988;8.450;2022-08-20T12:35:06;1.10;;;0.50;;
21814;SDS011;11069;48.988;8.450;2022-08-20T12:37:33;0.50;;;0.50;;
21814;SDS011;11069;48.988;8.450;2022-08-20T12:40:00;1.45;;;0.60;;
21814;SDS011;11069;48.988;8.450;2022-08-20T12:42:28;0.50;;;0.50;;
21814;SDS011;11069;48.988;8.450;2022-08-20T12:44:54;1.67;;;0.75;;
21814;SDS011;11069;48.988;8.450;2022-08-20T12:47:27;0.40;;;0.40;;
21814;SDS011;11069;48.988;8.450;2022-08-20T12:49:57;0.55;;;0.43;;
21814;SDS011;11069;48.988;8.450;2022-08-20T12:52:25;1.20;;;0.55;;
21814;SDS011;11069;48.988;8.450;2022-08-20T12:54:51;0.70;;;0.63;;
21814;SDS011;11069;48.988;8.450;2022-08-20T12:57:23;0.55;;;0.47;;
21814;SDS011;11069;48.988;8.450;2022-08-20T12:59:57;0.50;;;0.40;;
21814;SDS011;11069;48.988;8.450;2022-08-20T13:02:24;0.98;;;0.50;;
21814;SDS011;11069;48.988;8.450;2022-08-20T13:04:50;0.50;;;0.50;;
21814;SDS011;11069;48.988;8.450;2022-08-20T13:07:16;0.95;;;0.50;;
21814;SDS011;11069;48.988;8.450;2022-08-20T13:09:42;0.65;;;0.40;;
21814;SDS011;11069;48.988;8.450;2022-08-20T13:12:08;2.05;;;0.50;;
21814;SDS011;11069;48.988;8.450;2022-08-20T13:14:35;0.98;;;0.40;;
21814;SDS011;11069;48.988;8.450;2022-08-20T13:17:01;0.75;;;0.52;;
21814;SDS011;11069;48.988;8.450;2022-08-20T13:19:28;2.30;;;0.70;;
21814;SDS011;11069;48.988;8.450;2022-08-20T13:21:54;0.88;;;0.52;;
21814;SDS011;11069;48.988;8.450;2022-08-20T13:24:20;1.08;;;0.50;;
21814;SDS011;11069;48.988;8.450;2022-08-20T13:26:47;0.65;;;0.55;;
21814;SDS011;11069;48.988;8.450;2022-08-20T13:29:13;16.42;;;1.55;;
21814;SDS011;11069;48.988;8.450;2022-08-20T13:31:40;0.77;;;0.52;;
21814;SDS011;11069;48.988;8.450;2022-08-20T13:34:06;1.98;;;0.57;;
21814;SDS011;11069;48.988;8.450;2022-08-20T13:36:32;1.30;;;0.60;;
21814;SDS011;11069;48.988;8.450;2022-08-20T13:38:59;2.80;;;0.68;;
21814;SDS011;11069;48.988;8.450;2022-08-20T13:41:25;0.98;;;0.60;;
21814;SDS011;11069;48.988;8.450;2022-08-20T13:43:51;1.00;;;0.65;;
21814;SDS011;11069;48.988;8.450;2022-08-20T13:46:16;4.43;;;0.68;;
21814;SDS011;11069;48.988;8.450;2022-08-20T13:48:42;0.63;;;0.63;;
21814;SDS011;11069;48.988;8.450;2022-08-20T13:51:08;3.83;;;0.60;;
21814;SDS011;11069;48.988;8.450;2022-08-20T13:53:34;4.45;;;1.10;;
21814;SDS011;11069;48.988;8.450;2022-08-20T13:55:59;1.90;;;0.80;;
21814;SDS011;11069;48.988;8.450;2022-08-20T13:58:25;1.77;;;0.80;;
21814;SDS011;11069;48.988;8.450;2022-08-20T14:00:51;1.23;;;0.90;;
21814;SDS011;11069;48.988;8.450;2022-08-20T14:03:16;3.10;;;0.90;;
21814;SDS011;11069;48.988;8.450;2022-08-20T14:05:42;1.58;;;1.20;;
21814;SDS011;11069;48.988;8.450;2022-08-20T14:08:09;3.38;;;1.52;;
21814;SDS011;11069;48.988;8.450;2022-08-20T14:10:35;2.00;;;1.02;;
21814;SDS011;11069;48.988;8.450;2022-08-20T14:13:02;8.52;;;1.30;;
21814;SDS011;11069;48.988;8.450;2022-08-20T14:15:28;2.22;;;1.02;;
21814;SDS011;11069;48.988;8.450;2022-08-20T14:17:55;1.55;;;1.13;;
21814;SDS011;11069;48.988;8.450;2022-08-20T14:20:22;3.78;;;1.30;;
21814;SDS011;11069;48.988;8.450;2022-08-20T14:22:50;3.05;;;1.10;;
21814;SDS011;11069;48.988;8.450;2022-08-20T14:25:16;3.95;;;1.10;;
21814;SDS011;11069;48.988;8.450;2022-08-20T14:27:44;4.05;;;1.30;;
21814;SDS011;11069;48.988;8.450;2022-08-20T14:30:12;4.78;;;2.05;;
21814;SDS011;11069;48.988;8.450;2022-08-20T14:32:41;1.20;;;1.10;;
21814;SDS011;11069;48.988;8.450;2022-08-20T14:35:07;2.22;;;1.13;;
21814;SDS011;11069;48.988;8.450;2022-08-20T14:37:33;4.22;;;1.20;;
21814;SDS011;11069;48.988;8.450;2022-08-20T14:40:06;1.95;;;1.20;;
21814;SDS011;11069;48.988;8.450;2022-08-20T14:42:34;3.85;;;1.42;;
21814;SDS011;11069;48.988;8.450;2022-08-20T14:45:00;3.25;;;1.27;;
21814;SDS011;11069;48.988;8.450;2022-08-20T14:47:32;2.85;;;1.58;;
21814;SDS011;11069;48.988;8.450;2022-08-20T14:50:02;2.75;;;1.50;;
21814;SDS011;11069;48.988;8.450;2022-08-20T14:52:31;3.55;;;1.20;;
21814;SDS011;11069;48.988;8.450;2022-08-20T14:55:00;3.80;;;1.60;;
21814;SDS011;11069;48.988;8.450;2022-08-20T14:57:32;3.30;;;1.35;;
21814;SDS011;11069;48.988;8.450;2022-08-20T14:59:58;1.90;;;1.20;;
21814;SDS011;11069;48.988;8.450;2022-08-20T15:02:24;3.28;;;2.28;;
21814;SDS011;11069;48.988;8.450;2022-08-20T15:04:50;4.55;;;1.90;;
21814;SDS011;11069;48.988;8.450;2022-08-20T15:07:24;2.42;;;1.75;;
21814;SDS011;11069;48.988;8.450;2022-08-20T15:09:51;2.45;;;1.40;;